Time,TemperatureF,DewpointF,PressureIn,WindDirection,WindDirectionDegrees,WindSpeedMPH,WindSpeedGustMPH,Humidity,HourlyPrecipIn,Conditions,Clouds,dailyrainin,SoftwareType,DateUTC
2013-11-02 00:52:00,41.0,34.0,-100.00,WNW,292,2.0,-999.0,77,-99.99,,,-99.99,,2013-11-02 05:52:00,
2013-11-02 01:22:00,41.0,34.0,-100.00,WNW,292,2.0,-999.0,78,-99.99,,,-99.99,,2013-11-02 06:22:00,
2013-11-02 01:52:00,38.0,33.0,-100.00,WNW,292,2.0,-999.0,82,-99.99,,,-99.99,,2013-11-02 06:52:00,
2013-11-02 02:22:00,37.0,33.0,-100.00,West,270,2.0,-999.0,84,-99.99,,,-99.99,,2013-11-02 07:22:00,
2013-11-02 02:52:00,36.0,32.0,-100.00,West,270,2.0,-999.0,86,-99.99,,,-99.99,,2013-11-02 07:52:00,
2013-11-02 03:21:00,36.0,32.0,-100.00,West,270,2.0,-999.0,85,-99.99,,,-99.99,,2013-11-02 08:21:00,
2013-11-02 03:52:00,36.0,32.0,-100.00,West,270,2.0,-999.0,86,-99.99,,,-99.99,,2013-11-02 08:52:00,
2013-11-02 04:21:00,35.0,31.0,-100.00,WNW,292,2.0,-999.0,86,-99.99,,,-99.99,,2013-11-02 09:21:00,
2013-11-02 04:53:00,37.0,32.0,-100.00,WNW,292,3.0,-999.0,81,-99.99,,,-99.99,,2013-11-02 09:53:00,
2013-11-02 05:23:00,36.0,31.0,-100.00,WNW,292,3.0,-999.0,81,-99.99,,,-99.99,,2013-11-02 10:23:00,
2013-11-02 05:53:00,36.0,31.0,-100.00,WNW,292,2.0,-999.0,82,-99.99,,,-99.99,,2013-11-02 10:53:00,
2013-11-02 06:22:00,35.0,30.0,-100.00,WNW,292,2.0,-999.0,82,-99.99,,,-99.99,,2013-11-02 11:22:00,
2013-11-02 06:52:00,35.0,30.0,-100.00,WNW,292,2.0,-999.0,84,-99.99,,,-99.99,,2013-11-02 11:52:00,
2013-11-02 07:21:00,34.0,30.0,-100.00,WNW,292,2.0,-999.0,84,-99.99,,,-99.99,,2013-11-02 12:21:00,
2013-11-02 07:52:00,33.0,30.0,-100.00,WNW,292,2.0,-999.0,86,-99.99,,,-99.99,,2013-11-02 12:52:00,
2013-11-02 08:22:00,32.0,29.0,-100.00,West,270,2.0,-999.0,90,-99.99,,,-99.99,,2013-11-02 13:22:00,
2013-11-02 08:52:00,32.0,29.0,-100.00,West,270,2.0,-999.0,89,-99.99,,,-99.99,,2013-11-02 13:52:00,
2013-11-02 09:21:00,34.0,30.0,-100.00,WNW,292,2.0,-999.0,85,-99.99,,,-99.99,,2013-11-02 14:21:00,
2013-11-02 09:52:00,37.0,31.0,-100.00,WNW,292,2.0,-999.0,79,-99.99,,,-99.99,,2013-11-02 14:52:00,
2013-11-02 10:22:00,39.0,32.0,-100.00,WNW,292,2.0,-999.0,74,-99.99,,,-99.99,,2013-11-02 15:22:00,
2013-11-02 10:53:00,42.0,32.0,-100.00,WNW,292,2.0,-999.0,68,-99.99,,,-99.99,,2013-11-02 15:53:00,
2013-11-02 11:23:00,44.0,33.0,-100.00,WNW,292,3.0,-999.0,63,-99.99,,,-99.99,,2013-11-02 16:23:00,
2013-11-02 11:54:00,46.0,32.0,-100.00,NW,315,3.0,-999.0,57,-99.99,,,-99.99,,2013-11-02 16:54:00,
2013-11-02 12:22:00,47.0,31.0,-100.00,WNW,292,3.0,-999.0,53,-99.99,,,-99.99,,2013-11-02 17:22:00,
2013-11-02 12:53:00,49.0,32.0,-100.00,WNW,292,2.0,-999.0,50,-99.99,,,-99.99,,2013-11-02 17:53:00,
2013-11-02 13:21:00,51.0,32.0,-100.00,West,270,2.0,-999.0,47,-99.99,,,-99.99,,2013-11-02 18:21:00,
2013-11-02 13:52:00,52.0,32.0,-100.00,WNW,292,2.0,-999.0,45,-99.99,,,-99.99,,2013-11-02 18:52:00,
2013-11-02 14:21:00,53.0,30.0,-100.00,WNW,292,3.0,-999.0,41,-99.99,,,-99.99,,2013-11-02 19:21:00,
2013-11-02 14:52:00,54.0,30.0,-100.00,WNW,292,3.0,-999.0,40,-99.99,,,-99.99,,2013-11-02 19:52:00,
2013-11-02 15:22:00,55.0,30.0,-100.00,WNW,292,3.0,-999.0,38,-99.99,,,-99.99,,2013-11-02 20:22:00,
2013-11-02 15:53:00,56.0,29.0,-100.00,WNW,292,3.0,-999.0,36,-99.99,,,-99.99,,2013-11-02 20:53:00,
2013-11-02 16:22:00,56.0,28.0,-100.00,WNW,292,2.0,-999.0,34,-99.99,,,-99.99,,2013-11-02 21:22:00,
2013-11-02 16:54:00,57.0,28.0,-100.00,West,270,1.0,-999.0,33,-99.99,,,-99.99,,2013-11-02 21:54:00,
2013-11-02 17:24:00,57.0,26.0,-100.00,West,270,2.0,-999.0,31,-99.99,,,-99.99,,2013-11-02 22:24:00,
2013-11-02 17:54:00,56.0,28.0,-100.00,West,270,0.0,-999.0,34,-99.99,,,-99.99,,2013-11-02 22:54:00,
2013-11-02 18:22:00,54.0,29.0,-100.00,South,180,0.0,-999.0,38,-99.99,,,-99.99,,2013-11-02 23:22:00,
2013-11-02 19:21:00,49.0,29.0,-100.00,SSE,157,1.0,-999.0,46,-99.99,,,-99.99,,2013-11-03 00:21:00,
2013-11-02 19:52:00,47.0,29.0,-100.00,South,180,1.0,-999.0,48,-99.99,,,-99.99,,2013-11-03 00:52:00,
2013-11-02 20:21:00,45.0,29.0,-100.00,SSE,157,1.0,-999.0,52,-99.99,,,-99.99,,2013-11-03 01:21:00,
2013-11-02 20:52:00,44.0,30.0,-100.00,South,180,1.0,-999.0,57,-99.99,,,-99.99,,2013-11-03 01:52:00,
2013-11-02 21:21:00,42.0,30.0,-100.00,SSE,157,1.0,-999.0,61,-99.99,,,-99.99,,2013-11-03 02:21:00,
2013-11-02 21:52:00,42.0,30.0,-100.00,South,180,2.0,-999.0,62,-99.99,,,-99.99,,2013-11-03 02:52:00,
2013-11-02 22:22:00,41.0,30.0,-100.00,South,180,1.0,-999.0,65,-99.99,,,-99.99,,2013-11-03 03:22:00,
2013-11-02 22:54:00,40.0,30.0,-100.00,South,180,2.0,-999.0,67,-99.99,,,-99.99,,2013-11-03 03:54:00,
2013-11-02 23:02:00,-999.0,-99.9,-100.00,South,180,1.0,-999.0,-999,-99.99,,,-99.99,,2013-11-03 04:02:00,
2013-11-02 23:23:00,40.0,30.0,-100.00,South,180,2.0,-999.0,67,-99.99,,,-99.99,,2013-11-03 04:23:00,
2013-11-02 23:52:00,40.0,30.0,-100.00,South,180,2.0,-999.0,68,-99.99,,,-99.99,,2013-11-03 04:52:00,